createdAt,value
2019-03-18T00:00:54.128Z,3.88
2019-03-18T00:03:22.826Z,3.90
2019-03-18T00:05:51.473Z,3.75
2019-03-18T00:08:20.195Z,3.70
2019-03-18T00:10:49.902Z,3.83
2019-03-18T00:13:19.316Z,3.71
2019-03-18T00:15:48.371Z,3.73
2019-03-18T00:18:18.213Z,3.82
2019-03-18T00:20:47.596Z,3.64
2019-03-18T00:23:18.011Z,3.68
2019-03-18T00:25:47.524Z,3.91
2019-03-18T00:28:16.880Z,3.87
2019-03-18T00:30:45.984Z,3.76
2019-03-18T00:33:15.642Z,3.54
2019-03-18T00:35:45.157Z,3.63
2019-03-18T00:38:13.828Z,3.97
2019-03-18T00:40:42.512Z,4.06
2019-03-18T00:43:11.206Z,3.96
2019-03-18T00:45:40.477Z,4.01
2019-03-18T00:48:09.421Z,4.08
2019-03-18T00:50:38.073Z,4.07
2019-03-18T00:53:06.731Z,4.11
2019-03-18T00:55:35.676Z,4.03
2019-03-18T00:58:05.052Z,4.06
2019-03-18T01:00:34.345Z,4.09
2019-03-18T01:03:02.994Z,4.02
2019-03-18T01:05:32.392Z,4.02
2019-03-18T01:08:01.601Z,4.05
2019-03-18T01:10:30.321Z,4.14
2019-03-18T01:12:59.729Z,4.14
2019-03-18T01:15:28.830Z,4.09
2019-03-18T01:17:58.031Z,4.08
2019-03-18T01:20:26.992Z,4.17
2019-03-18T01:22:55.672Z,4.23
2019-03-18T01:25:24.348Z,4.22
2019-03-18T01:27:53.319Z,4.24
2019-03-18T01:30:22.319Z,4.29
2019-03-18T01:32:50.989Z,4.29
2019-03-18T01:35:19.933Z,4.32
2019-03-18T01:37:48.586Z,4.28
2019-03-18T01:40:17.259Z,4.17
2019-03-18T01:42:46.615Z,4.30
2019-03-18T01:45:16.019Z,4.19
2019-03-18T01:47:45.001Z,4.24
2019-03-18T01:50:14.302Z,4.20
2019-03-18T01:52:43.473Z,4.23
2019-03-18T01:55:12.634Z,4.26
2019-03-18T01:57:41.363Z,4.23
2019-03-18T02:00:11.214Z,4.29
2019-03-18T02:02:40.514Z,4.23
2019-03-18T02:05:10.372Z,4.21
2019-03-18T02:07:40.091Z,4.15
2019-03-18T02:10:09.918Z,4.18
2019-03-18T02:12:57.886Z,4.20
2019-03-18T02:15:26.537Z,4.22
2019-03-18T02:17:55.193Z,4.18
2019-03-18T02:20:23.867Z,4.17
2019-03-18T02:22:52.510Z,4.19
2019-03-18T02:25:21.156Z,4.19
2019-03-18T02:27:49.826Z,4.13
2019-03-18T02:30:19.246Z,4.21
2019-03-18T02:32:48.107Z,4.11
2019-03-18T02:35:16.943Z,4.04
2019-03-18T02:37:45.691Z,4.08
2019-03-18T02:40:14.407Z,4.05
2019-03-18T02:42:43.506Z,4.00
2019-03-18T02:45:12.662Z,3.99
2019-03-18T02:47:41.458Z,3.97
2019-03-18T02:50:10.651Z,3.92
2019-03-18T02:52:39.278Z,3.88
2019-03-18T02:55:08.780Z,3.88
2019-03-18T02:57:37.482Z,3.94
2019-03-18T03:00:09.236Z,4.04
2019-03-18T03:02:37.889Z,4.12
2019-03-18T03:05:07.276Z,4.17
2019-03-18T03:07:35.948Z,4.25
2019-03-18T03:10:05.380Z,4.24
2019-03-18T03:12:34.548Z,4.19
2019-03-18T03:15:03.308Z,4.11
2019-03-18T03:17:31.947Z,4.15
2019-03-18T03:20:00.621Z,4.14
2019-03-18T03:22:29.287Z,4.09
2019-03-18T03:24:57.938Z,4.09
2019-03-18T03:27:26.608Z,4.09
2019-03-18T03:29:55.252Z,4.10
2019-03-18T03:32:23.916Z,4.03
2019-03-18T03:34:52.595Z,4.07
2019-03-18T03:37:21.242Z,4.04
2019-03-18T03:39:49.893Z,3.96
2019-03-18T03:42:18.578Z,3.93
2019-03-18T03:44:47.231Z,3.89
2019-03-18T03:47:15.882Z,3.89
2019-03-18T03:49:44.580Z,3.85
2019-03-18T03:52:13.221Z,3.79
2019-03-18T03:54:41.946Z,3.66
2019-03-18T03:57:10.626Z,3.39
2019-03-18T03:59:39.365Z,3.21
2019-03-18T04:02:08.139Z,3.07
2019-03-18T04:04:36.924Z,3.08
2019-03-18T04:07:05.618Z,3.04
2019-03-18T04:09:34.281Z,3.00
2019-03-18T04:12:02.914Z,3.01
2019-03-18T04:14:31.583Z,3.03
2019-03-18T04:17:02.699Z,3.04
2019-03-18T04:19:30.692Z,3.08
2019-03-18T04:21:59.406Z,3.19
2019-03-18T04:24:28.079Z,3.19
2019-03-18T04:26:56.735Z,3.23
2019-03-18T04:29:25.434Z,3.25
2019-03-18T04:31:54.081Z,3.28
2019-03-18T04:34:22.782Z,3.29
2019-03-18T04:36:51.435Z,3.36
2019-03-18T04:39:20.086Z,3.41
2019-03-18T04:41:48.779Z,3.55
2019-03-18T04:44:17.449Z,3.55
2019-03-18T04:46:46.108Z,3.63
2019-03-18T04:49:14.785Z,3.61
2019-03-18T04:51:43.440Z,3.66
2019-03-18T04:54:12.117Z,3.70
2019-03-18T04:56:40.806Z,3.75
2019-03-18T04:59:09.812Z,3.75
2019-03-18T05:01:38.456Z,3.75
2019-03-18T05:04:07.162Z,3.81
2019-03-18T05:06:35.820Z,3.83
2019-03-18T05:09:05.665Z,3.88
2019-03-18T05:11:34.357Z,3.96
2019-03-18T05:14:03.293Z,3.97
2019-03-18T05:16:31.993Z,4.01
2019-03-18T05:19:00.696Z,3.98
2019-03-18T05:21:29.345Z,3.98
2019-03-18T05:23:57.998Z,4.02
2019-03-18T05:26:26.680Z,4.04
2019-03-18T05:28:55.331Z,4.05
2019-03-18T05:31:23.992Z,4.09
2019-03-18T05:33:52.665Z,4.07
2019-03-18T05:36:21.341Z,4.12
2019-03-18T05:38:50.043Z,4.12
2019-03-18T05:41:18.696Z,4.18
2019-03-18T05:43:47.356Z,4.12
2019-03-18T05:46:16.056Z,4.13
2019-03-18T05:48:44.705Z,4.04
2019-03-18T05:51:13.360Z,3.99
2019-03-18T05:53:42.032Z,3.95
2019-03-18T05:56:10.685Z,3.89
2019-03-18T05:58:39.349Z,3.86
2019-03-18T06:01:08.098Z,3.88
2019-03-18T06:03:36.752Z,3.90
2019-03-18T06:06:05.572Z,4.00
2019-03-18T06:08:34.226Z,4.02
2019-03-18T06:11:02.882Z,4.09
2019-03-18T06:13:31.556Z,4.13
2019-03-18T06:16:00.238Z,4.14
2019-03-18T06:18:28.946Z,4.18
2019-03-18T06:20:57.604Z,4.19
2019-03-18T06:23:26.308Z,4.23
2019-03-18T06:25:54.992Z,4.22
2019-03-18T06:28:23.631Z,4.21
2019-03-18T06:30:52.310Z,4.18
2019-03-18T06:33:20.989Z,4.27
2019-03-18T06:35:49.668Z,4.34
2019-03-18T06:38:18.397Z,4.34
2019-03-18T06:40:47.032Z,4.39
2019-03-18T06:43:15.707Z,4.45
2019-03-18T06:45:44.357Z,4.48
2019-03-18T06:48:13.040Z,4.56
2019-03-18T06:50:41.698Z,4.51
2019-03-18T06:53:10.381Z,4.46
2019-03-18T06:55:39.039Z,4.43
2019-03-18T06:58:07.716Z,4.44
2019-03-18T07:00:36.695Z,4.37
2019-03-18T07:03:06.022Z,4.42
2019-03-18T07:05:34.738Z,4.49
2019-03-18T07:08:03.389Z,4.65
2019-03-18T07:10:32.049Z,4.80
2019-03-18T07:13:00.735Z,4.81
2019-03-18T07:15:29.395Z,4.83
2019-03-18T07:17:58.101Z,4.85
2019-03-18T07:20:26.787Z,4.90
2019-03-18T07:22:55.469Z,5.03
2019-03-18T07:25:24.136Z,5.11
2019-03-18T07:27:52.851Z,5.11
2019-03-18T07:30:21.514Z,5.21
2019-03-18T07:32:50.173Z,5.11
2019-03-18T07:35:18.848Z,5.01
2019-03-18T07:37:47.513Z,4.92
2019-03-18T07:40:16.259Z,4.84
2019-03-18T07:42:45.012Z,4.65
2019-03-18T07:45:15.842Z,4.62
2019-03-18T07:47:44.851Z,4.59
2019-03-18T07:50:13.598Z,4.79
2019-03-18T07:52:42.261Z,4.76
2019-03-18T07:55:11.190Z,4.70
2019-03-18T07:57:39.902Z,4.92
2019-03-18T08:00:09.368Z,5.16
2019-03-18T08:02:38.040Z,5.17
2019-03-18T08:05:07.396Z,5.27
2019-03-18T08:07:36.069Z,5.16
2019-03-18T08:10:05.196Z,5.28
2019-03-18T08:12:33.866Z,5.36
2019-03-18T08:15:02.542Z,5.33
2019-03-18T08:17:31.296Z,5.21
2019-03-18T08:20:03.020Z,5.23
2019-03-18T08:22:30.383Z,5.58
2019-03-18T08:24:59.051Z,5.58
2019-03-18T08:27:27.709Z,5.55
2019-03-18T08:29:56.395Z,5.58
2019-03-18T08:32:25.065Z,5.75
2019-03-18T08:34:53.719Z,6.05
2019-03-18T08:37:22.421Z,6.19
2019-03-18T08:39:51.473Z,6.91
2019-03-18T08:42:20.153Z,7.10
2019-03-18T08:44:48.832Z,6.66
2019-03-18T08:47:17.564Z,6.35
2019-03-18T08:49:46.217Z,6.29
2019-03-18T08:52:14.884Z,6.39
2019-03-18T08:54:43.554Z,6.34
2019-03-18T08:57:12.212Z,6.15
2019-03-18T08:59:40.914Z,6.21
2019-03-18T09:02:09.574Z,6.28
2019-03-18T09:04:38.239Z,6.15
2019-03-18T09:07:06.917Z,6.26
2019-03-18T09:09:35.572Z,6.29
2019-03-18T09:12:04.310Z,6.45
2019-03-18T09:14:32.987Z,6.93
2019-03-18T09:17:01.661Z,7.19
2019-03-18T09:19:30.371Z,7.08
2019-03-18T09:21:59.032Z,7.45
2019-03-18T09:24:27.689Z,7.06
2019-03-18T09:27:02.326Z,6.99
2019-03-18T09:29:27.091Z,6.81
2019-03-18T09:31:55.767Z,6.84
2019-03-18T09:34:24.429Z,7.44
2019-03-18T09:36:53.108Z,7.46
2019-03-18T09:39:21.769Z,7.95
2019-03-18T09:41:50.430Z,7.35
2019-03-18T09:44:19.447Z,6.95
2019-03-18T09:46:48.099Z,6.87
2019-03-18T09:49:21.910Z,6.90
2019-03-18T09:51:47.163Z,6.76
2019-03-18T09:54:15.821Z,6.68
2019-03-18T09:56:44.477Z,6.80
2019-03-18T09:59:13.150Z,7.10
2019-03-18T10:01:44.391Z,7.25
2019-03-18T10:04:12.195Z,7.20
2019-03-18T10:06:40.884Z,7.23
2019-03-18T10:09:09.597Z,7.12
2019-03-18T10:11:38.257Z,7.17
2019-03-18T10:14:07.008Z,7.33
2019-03-18T10:16:35.687Z,7.77
2019-03-18T10:19:04.369Z,8.38
2019-03-18T10:21:33.020Z,8.59
2019-03-18T10:24:02.052Z,8.30
2019-03-18T10:26:30.719Z,8.55
2019-03-18T10:28:59.639Z,8.44
2019-03-18T10:31:28.343Z,8.13
2019-03-18T10:33:57.000Z,8.62
2019-03-18T10:36:25.768Z,8.75
2019-03-18T10:38:54.424Z,9.19
2019-03-18T10:41:23.075Z,9.15
2019-03-18T10:43:51.750Z,9.44
2019-03-18T10:46:20.420Z,9.08
2019-03-18T10:48:49.082Z,8.56
2019-03-18T10:51:17.989Z,8.17
2019-03-18T10:53:46.758Z,7.71
2019-03-18T10:56:15.423Z,7.74
2019-03-18T10:58:44.080Z,7.70
2019-03-18T11:01:12.761Z,7.54
2019-03-18T11:03:41.422Z,7.65
2019-03-18T11:06:10.099Z,7.87
2019-03-18T11:08:38.756Z,8.95
2019-03-18T11:11:07.414Z,10.33
2019-03-18T11:13:36.081Z,10.58
2019-03-18T11:16:04.855Z,11.16
2019-03-18T11:18:33.547Z,11.34
2019-03-18T11:21:02.225Z,11.30
2019-03-18T11:23:30.900Z,11.16
2019-03-18T11:25:59.567Z,10.42
2019-03-18T11:28:28.225Z,10.39
2019-03-18T11:30:56.903Z,11.04
2019-03-18T11:33:28.337Z,10.31
2019-03-18T11:35:55.990Z,9.43
2019-03-18T11:38:24.647Z,9.27
2019-03-18T11:40:53.348Z,10.08
2019-03-18T11:43:22.100Z,10.13
2019-03-18T11:45:50.875Z,9.58
2019-03-18T11:48:19.607Z,9.00
2019-03-18T11:50:48.263Z,8.82
2019-03-18T11:53:16.949Z,8.84
2019-03-18T11:55:45.603Z,8.55
2019-03-18T11:58:14.250Z,8.35
2019-03-18T12:00:42.933Z,7.97
2019-03-18T12:03:11.688Z,7.71
2019-03-18T12:05:40.418Z,7.72
2019-03-18T12:08:09.070Z,7.63
2019-03-18T12:10:37.749Z,7.64
2019-03-18T12:13:06.558Z,7.57
2019-03-18T12:15:36.580Z,7.39
2019-03-18T12:18:05.479Z,7.14
2019-03-18T12:20:34.154Z,6.68
2019-03-18T12:23:02.826Z,6.28
2019-03-18T12:25:33.728Z,6.12
2019-03-18T12:28:04.939Z,6.15
2019-03-18T12:30:32.356Z,6.20
2019-03-18T12:33:01.080Z,7.08
2019-03-18T12:35:29.734Z,7.67
2019-03-18T12:37:58.414Z,7.09
2019-03-18T12:40:27.104Z,6.86
2019-03-18T12:42:55.798Z,7.17
2019-03-18T12:45:26.523Z,7.86
2019-03-18T12:47:55.185Z,7.49
2019-03-18T12:50:43.000Z,7.03
2019-03-18T12:52:54.551Z,6.67
2019-03-18T12:55:23.207Z,7.45
2019-03-18T12:57:52.142Z,7.55
2019-03-18T13:00:22.266Z,7.23
2019-03-18T13:02:50.950Z,7.31
2019-03-18T13:05:19.866Z,8.20
2019-03-18T13:07:48.590Z,9.14
2019-03-18T13:10:17.427Z,9.74
2019-03-18T13:12:46.089Z,10.38
2019-03-18T13:15:15.304Z,10.54
2019-03-18T13:17:44.260Z,9.64
2019-03-18T13:20:13.853Z,9.87
2019-03-18T13:22:42.926Z,10.12
2019-03-18T13:25:11.783Z,9.73
2019-03-18T13:27:40.514Z,9.86
2019-03-18T13:30:11.827Z,9.05
2019-03-18T13:32:40.824Z,8.34
2019-03-18T13:35:09.896Z,9.60
2019-03-18T13:37:38.658Z,10.06
2019-03-18T13:40:09.411Z,9.67
2019-03-18T13:42:38.087Z,9.99
2019-03-18T13:45:11.268Z,9.93
2019-03-18T13:47:40.043Z,10.39
2019-03-18T13:50:10.239Z,9.54
2019-03-18T13:52:38.942Z,9.23
2019-03-18T13:55:07.747Z,10.05
2019-03-18T13:57:36.826Z,9.77
2019-03-18T14:00:08.111Z,9.18
2019-03-18T14:02:36.770Z,9.17
2019-03-18T14:05:06.217Z,8.69
2019-03-18T14:07:34.872Z,8.23
2019-03-18T14:10:03.715Z,7.41
2019-03-18T14:12:32.396Z,7.01
2019-03-18T14:15:01.051Z,6.87
2019-03-18T14:17:29.751Z,6.83
2019-03-18T14:20:00.675Z,7.22
2019-03-18T14:22:28.832Z,7.10
2019-03-18T14:24:57.486Z,7.47
2019-03-18T14:27:27.016Z,8.70
2019-03-18T14:29:55.697Z,9.74
2019-03-18T14:32:24.344Z,9.13
2019-03-18T14:34:53.060Z,8.75
2019-03-18T14:37:21.715Z,8.03
2019-03-18T14:39:50.386Z,7.87
2019-03-18T14:42:19.096Z,8.03
2019-03-18T14:44:47.735Z,8.09
2019-03-18T14:47:16.673Z,8.27
2019-03-18T14:49:46.489Z,7.87
2019-03-18T14:52:15.523Z,7.89
2019-03-18T14:54:44.284Z,8.20
2019-03-18T14:57:12.943Z,8.72
2019-03-18T14:59:41.621Z,9.38
2019-03-18T15:02:10.668Z,11.47
2019-03-18T15:04:39.766Z,11.17
2019-03-18T15:07:09.144Z,12.22
2019-03-18T15:09:38.131Z,11.40
2019-03-18T15:12:06.799Z,12.73
2019-03-18T15:14:35.470Z,11.75
2019-03-18T15:17:04.152Z,10.81
2019-03-18T15:19:32.816Z,10.40
2019-03-18T15:22:01.497Z,10.08
2019-03-18T15:24:30.199Z,11.09
2019-03-18T15:26:58.927Z,11.28
2019-03-18T15:29:27.618Z,10.94
2019-03-18T15:31:56.274Z,9.98
2019-03-18T15:34:24.942Z,10.63
2019-03-18T15:36:53.938Z,11.46
2019-03-18T15:39:22.599Z,12.26
2019-03-18T15:41:51.251Z,12.42
2019-03-18T15:44:20.004Z,10.82
2019-03-18T15:46:48.762Z,10.97
2019-03-18T15:49:17.422Z,10.93
2019-03-18T15:51:46.165Z,10.05
2019-03-18T15:54:14.890Z,9.52
2019-03-18T15:56:43.634Z,8.97
2019-03-18T15:59:12.287Z,9.24
2019-03-18T16:01:41.279Z,8.62
2019-03-18T16:04:10.244Z,7.81
2019-03-18T16:06:38.898Z,7.55
2019-03-18T16:09:08.884Z,7.36
2019-03-18T16:11:37.543Z,7.39
2019-03-18T16:14:06.655Z,7.36
2019-03-18T16:16:36.172Z,5.69
2019-03-18T16:19:05.533Z,4.54
2019-03-18T16:21:34.310Z,4.16
2019-03-18T16:24:03.661Z,4.09
2019-03-18T16:26:33.030Z,4.38
2019-03-18T16:29:02.692Z,4.75
2019-03-18T16:31:31.735Z,5.13
2019-03-18T16:34:00.689Z,5.62
2019-03-18T16:36:29.656Z,5.53
2019-03-18T16:38:59.464Z,6.47
2019-03-18T16:41:28.461Z,6.90
2019-03-18T16:43:57.843Z,6.95
2019-03-18T16:46:26.581Z,5.98
2019-03-18T16:48:55.382Z,5.56
2019-03-18T16:51:24.028Z,5.21
2019-03-18T16:53:52.674Z,5.07
2019-03-18T16:56:21.362Z,5.03
2019-03-18T16:58:50.009Z,5.03
2019-03-18T17:01:18.668Z,5.02
2019-03-18T17:03:47.325Z,5.08
2019-03-18T17:06:15.997Z,5.00
2019-03-18T17:08:44.669Z,5.05
2019-03-18T17:11:13.324Z,5.13
2019-03-18T17:13:41.977Z,5.22
2019-03-18T17:16:10.673Z,5.20
2019-03-18T17:18:39.333Z,5.14
2019-03-18T17:21:08.019Z,5.06
2019-03-18T17:23:36.705Z,4.90
2019-03-18T17:26:05.393Z,4.66
2019-03-18T17:28:34.050Z,4.48
2019-03-18T17:31:02.750Z,4.35
2019-03-18T17:33:31.396Z,4.20
2019-03-18T17:36:00.310Z,3.89
2019-03-18T17:38:29.006Z,3.57
2019-03-18T17:40:57.701Z,3.23
2019-03-18T17:43:26.343Z,2.96
2019-03-18T17:45:55.104Z,2.71
2019-03-18T17:48:23.779Z,2.59
2019-03-18T17:50:52.436Z,2.59
2019-03-18T17:53:21.127Z,2.77
2019-03-18T17:55:49.776Z,2.56
2019-03-18T17:58:18.429Z,2.23
2019-03-18T18:00:50.416Z,2.15
2019-03-18T18:03:19.063Z,1.97
2019-03-18T18:05:48.010Z,2.28
2019-03-18T18:08:18.286Z,2.18
2019-03-18T18:10:47.161Z,2.01
2019-03-18T18:13:15.812Z,2.00
2019-03-18T18:15:44.505Z,1.65
2019-03-18T18:18:13.450Z,1.38
2019-03-18T18:20:42.179Z,1.39
2019-03-18T18:23:14.588Z,1.57
2019-03-18T18:25:41.265Z,1.47
2019-03-18T18:28:09.948Z,1.35
2019-03-18T18:30:38.616Z,1.42
2019-03-18T18:33:08.112Z,1.47
2019-03-18T18:35:37.050Z,1.36
2019-03-18T18:38:05.782Z,1.49
2019-03-18T18:40:34.442Z,1.43
2019-03-18T18:43:04.091Z,1.41
2019-03-18T18:45:33.389Z,1.45
2019-03-18T18:48:02.057Z,2.15
2019-03-18T18:50:31.106Z,2.08
2019-03-18T18:53:00.138Z,2.52
2019-03-18T18:55:29.436Z,2.83
2019-03-18T18:57:58.393Z,2.86
2019-03-18T19:00:27.077Z,3.63
2019-03-18T19:02:55.767Z,3.92
2019-03-18T19:05:24.836Z,3.91
2019-03-18T19:07:53.868Z,4.03
2019-03-18T19:10:23.231Z,4.19
2019-03-18T19:12:52.913Z,4.20
2019-03-18T19:15:22.483Z,4.35
2019-03-18T19:17:52.181Z,4.24
2019-03-18T19:20:22.002Z,4.37
2019-03-18T19:22:51.053Z,4.55
2019-03-18T19:25:20.426Z,4.53
2019-03-18T19:27:50.045Z,4.76
2019-03-18T19:30:18.799Z,4.54
2019-03-18T19:32:47.732Z,4.71
2019-03-18T19:35:16.463Z,4.66
2019-03-18T19:37:45.205Z,4.66
2019-03-18T19:40:14.494Z,4.48
2019-03-18T19:42:43.243Z,4.51
2019-03-18T19:45:12.767Z,4.46
2019-03-18T19:47:41.629Z,4.51
2019-03-18T19:50:13.609Z,4.40
2019-03-18T19:52:43.029Z,4.41
2019-03-18T19:55:12.093Z,4.44
2019-03-18T19:57:40.897Z,4.44
2019-03-18T20:00:13.157Z,4.36
2019-03-18T20:02:42.122Z,4.40
2019-03-18T20:05:14.967Z,4.26
2019-03-18T20:07:41.357Z,4.27
2019-03-18T20:10:11.239Z,4.17
2019-03-18T20:12:39.977Z,4.14
2019-03-18T20:15:10.129Z,4.24
2019-03-18T20:17:38.852Z,4.19
2019-03-18T20:20:09.420Z,4.17
2019-03-18T20:22:38.389Z,4.18
2019-03-18T20:25:07.522Z,4.01
2019-03-18T20:27:36.202Z,3.66
2019-03-18T20:30:06.861Z,3.32
2019-03-18T20:32:35.777Z,3.11
2019-03-18T20:35:05.130Z,3.14
2019-03-18T20:37:33.875Z,3.49
2019-03-18T20:40:02.529Z,3.34
2019-03-18T20:42:31.205Z,3.26
2019-03-18T20:44:59.893Z,3.27
2019-03-18T20:47:28.566Z,3.07
2019-03-18T20:49:57.217Z,3.13
2019-03-18T20:52:25.897Z,3.40
2019-03-18T20:54:54.550Z,3.28
2019-03-18T20:57:23.201Z,3.30
2019-03-18T20:59:52.207Z,3.07
2019-03-18T21:02:20.857Z,2.59
2019-03-18T21:04:49.511Z,2.22
2019-03-18T21:07:18.186Z,2.08
2019-03-18T21:09:46.844Z,2.17
2019-03-18T21:12:15.520Z,1.95
2019-03-18T21:14:44.176Z,1.70
2019-03-18T21:17:12.829Z,1.54
2019-03-18T21:19:41.518Z,1.42
2019-03-18T21:22:10.173Z,1.28
2019-03-18T21:24:38.849Z,1.39
2019-03-18T21:27:07.541Z,1.63
2019-03-18T21:29:36.210Z,1.78
2019-03-18T21:32:04.935Z,1.76
2019-03-18T21:34:33.648Z,1.71
2019-03-18T21:37:02.316Z,2.08
2019-03-18T21:39:30.972Z,2.15
2019-03-18T21:41:59.726Z,1.81
2019-03-18T21:44:28.374Z,1.51
2019-03-18T21:46:57.039Z,1.40
2019-03-18T21:49:25.724Z,1.31
2019-03-18T21:51:54.376Z,1.39
2019-03-18T21:54:33.471Z,1.61
2019-03-18T21:56:53.446Z,2.09
2019-03-18T21:59:22.104Z,2.18
2019-03-18T22:01:50.777Z,2.12
2019-03-18T22:04:19.826Z,2.38
2019-03-18T22:06:48.482Z,2.32
2019-03-18T22:09:17.232Z,2.24
2019-03-18T22:11:45.890Z,2.02
2019-03-18T22:14:14.547Z,2.09
2019-03-18T22:16:43.225Z,2.14
2019-03-18T22:19:12.034Z,2.20
2019-03-18T22:21:40.738Z,2.09
2019-03-18T22:24:09.388Z,1.82
2019-03-18T22:26:38.063Z,1.78
2019-03-18T22:29:07.091Z,1.83
2019-03-18T22:31:35.733Z,1.72
2019-03-18T22:34:04.420Z,1.65
2019-03-18T22:36:33.073Z,1.66
2019-03-18T22:39:01.729Z,1.72
2019-03-18T22:41:30.419Z,1.66
2019-03-18T22:43:59.065Z,1.54
2019-03-18T22:46:27.711Z,1.42
2019-03-18T22:48:56.406Z,1.08
2019-03-18T22:51:24.824Z,1.04
2019-03-18T22:53:53.510Z,0.93
2019-03-18T22:56:22.187Z,0.73
2019-03-18T22:58:50.839Z,0.75
2019-03-18T23:01:21.788Z,0.94
2019-03-18T23:03:50.445Z,0.96
2019-03-18T23:06:19.104Z,0.95
2019-03-18T23:08:49.041Z,1.02
2019-03-18T23:11:17.834Z,1.14
2019-03-18T23:13:46.495Z,1.31
2019-03-18T23:16:15.175Z,1.42
2019-03-18T23:18:43.845Z,1.68
2019-03-18T23:21:12.529Z,1.62
2019-03-18T23:23:41.217Z,1.47
2019-03-18T23:26:10.564Z,1.50
2019-03-18T23:28:39.231Z,1.37
2019-03-18T23:31:08.185Z,1.00
2019-03-18T23:33:36.840Z,1.05
2019-03-18T23:36:05.792Z,1.01
2019-03-18T23:38:34.505Z,1.03
2019-03-18T23:41:03.595Z,1.77
2019-03-18T23:43:32.206Z,2.03
2019-03-18T23:46:00.883Z,2.22
2019-03-18T23:48:29.532Z,2.46
2019-03-18T23:50:58.217Z,2.38
2019-03-18T23:53:27.252Z,2.17
2019-03-18T23:55:56.148Z,2.13
2019-03-18T23:58:24.835Z,2.08
